地図

経路データ

SID SEASON NUMBER BASIN SUBBASIN NAME ISO_TIME NATURE LAT LON WMO_WIND WMO_PRES WMO_AGENCY TRACK_TYPE DIST2LAND LANDFALL IFLAG USA_AGENCY USA_ATCF_ID USA_LAT USA_LON USA_RECORD USA_STATUS USA_WIND USA_PRES USA_SSHS USA_R34_NE USA_R34_SE USA_R34_SW USA_R34_NW USA_R50_NE USA_R50_SE USA_R50_SW USA_R50_NW USA_R64_NE USA_R64_SE USA_R64_SW USA_R64_NW USA_POCI USA_ROCI USA_RMW USA_EYE TOKYO_LAT TOKYO_LON TOKYO_GRADE TOKYO_WIND TOKYO_PRES TOKYO_R50_DIR TOKYO_R50_LONG TOKYO_R50_SHORT TOKYO_R30_DIR TOKYO_R30_LONG TOKYO_R30_SHORT TOKYO_LAND CMA_LAT CMA_LON CMA_CAT CMA_WIND CMA_PRES HKO_LAT HKO_LON HKO_CAT HKO_WIND HKO_PRES NEWDELHI_LAT NEWDELHI_LON NEWDELHI_GRADE NEWDELHI_WIND NEWDELHI_PRES NEWDELHI_CI NEWDELHI_DP NEWDELHI_POCI REUNION_LAT REUNION_LON REUNION_TYPE REUNION_WIND REUNION_PRES REUNION_TNUM REUNION_CI REUNION_RMW REUNION_R34_NE REUNION_R34_SE REUNION_R34_SW REUNION_R34_NW REUNION_R50_NE REUNION_R50_SE REUNION_R50_SW REUNION_R50_NW REUNION_R64_NE REUNION_R64_SE REUNION_R64_SW REUNION_R64_NW BOM_LAT BOM_LON BOM_TYPE BOM_WIND BOM_PRES BOM_TNUM BOM_CI BOM_RMW BOM_R34_NE BOM_R34_SE BOM_R34_SW BOM_R34_NW BOM_R50_NE BOM_R50_SE BOM_R50_SW BOM_R50_NW BOM_R64_NE BOM_R64_SE BOM_R64_SW BOM_R64_NW BOM_ROCI BOM_POCI BOM_EYE BOM_POS_METHOD BOM_PRES_METHOD NADI_LAT NADI_LON NADI_CAT NADI_WIND NADI_PRES WELLINGTON_LAT WELLINGTON_LON WELLINGTON_WIND WELLINGTON_PRES DS824_LAT DS824_LON DS824_STAGE DS824_WIND DS824_PRES TD9636_LAT TD9636_LON TD9636_STAGE TD9636_WIND TD9636_PRES TD9635_LAT TD9635_LON TD9635_WIND TD9635_PRES TD9635_ROCI NEUMANN_LAT NEUMANN_LON NEUMANN_CLASS NEUMANN_WIND NEUMANN_PRES MLC_LAT MLC_LON MLC_CLASS MLC_WIND MLC_PRES USA_GUST BOM_GUST BOM_GUST_PER REUNION_GUST REUNION_GUST_PER USA_SEAHGT USA_SEARAD_NE USA_SEARAD_SE USA_SEARAD_SW USA_SEARAD_NW STORM_SPEED STORM_DIR
1896021S11069 1896 2 SI MM NOT_NAMED 1896-01-21 06:00:00 NR -11.1000 69.4000 reunion main 1606 1606 _____O________ -1 -11.1000 69.4000 99 9.90000 1 241
1896021S11069 1896 2 SI MM NOT_NAMED 1896-01-21 09:00:00 NR -11.1328 69.3477 main 1598 1591 _____P________ -1 -11.1328 69.3477 99 1 236
1896021S11069 1896 2 SI MM NOT_NAMED 1896-01-21 12:00:00 NR -11.1697 69.2897 main 1591 1582 _____P________ -1 -11.1697 69.2897 99 1 236
1896021S11069 1896 2 SI MM NOT_NAMED 1896-01-21 15:00:00 NR -11.2146 69.2202 main 1582 1567 _____P________ -1 -11.2146 69.2202 99 2 237
1896021S11069 1896 2 SI MM NOT_NAMED 1896-01-21 18:00:00 NR -11.2716 69.1336 main 1567 1558 _____P________ -1 -11.2716 69.1336 99 2 236
1896021S11069 1896 2 SI MM NOT_NAMED 1896-01-21 21:00:00 NR -11.3446 69.0240 main 1558 1543 _____P________ -1 -11.3446 69.0240 99 3 236
1896021S11069 1896 2 SI MM NOT_NAMED 1896-01-22 00:00:00 NR -11.4377 68.8858 main 1543 1519 _____P________ -1 -11.4377 68.8858 99 4 235
1896021S11069 1896 2 SI MM NOT_NAMED 1896-01-22 03:00:00 NR -11.5548 68.7130 main 1512 1488 _____P________ -1 -11.5548 68.7130 99 5 235
1896021S11069 1896 2 SI MM NOT_NAMED 1896-01-22 06:00:00 NR -11.7000 68.5000 reunion main 1488 1457 _____O________ -1 -11.7000 68.5000 99 9.90000 6 235
1896021S11069 1896 2 SI MM NOT_NAMED 1896-01-22 09:00:00 NR -11.8755 68.2432 main 1449 1417 _____P________ -1 -11.8755 68.2432 99 7 235
1896021S11069 1896 2 SI MM NOT_NAMED 1896-01-22 12:00:00 NR -12.0769 67.9491 main 1409 1370 _____P________ -1 -12.0769 67.9491 99 7 235
1896021S11069 1896 2 SI MM NOT_NAMED 1896-01-22 15:00:00 NR -12.2984 67.6264 main 1370 1331 _____P________ -1 -12.2984 67.6264 99 8 235
1896021S11069 1896 2 SI MM NOT_NAMED 1896-01-22 18:00:00 NR -12.5340 67.2842 main 1331 1284 _____P________ -1 -12.5340 67.2842 99 8 235
1896021S11069 1896 2 SI MM NOT_NAMED 1896-01-22 21:00:00 NR -12.7777 66.9314 main 1276 1237 _____P________ -1 -12.7777 66.9314 99 8 235
1896021S11069 1896 2 SI MM NOT_NAMED 1896-01-23 00:00:00 NR -13.0238 66.5770 main 1237 1182 _____P________ -1 -13.0238 66.5770 99 8 234
1896021S11069 1896 2 SI MM NOT_NAMED 1896-01-23 03:00:00 NR -13.2665 66.2302 main 1182 1143 _____P________ -1 -13.2665 66.2302 99 8 234
1896021S11069 1896 2 SI MM NOT_NAMED 1896-01-23 06:00:00 NR -13.5000 65.9000 reunion main 1143 1103 _____O________ -1 -13.5000 65.9000 99 9.90000 7 235
1896021S11069 1896 2 SI MM NOT_NAMED 1896-01-23 09:00:00 NR -13.6974 65.6026 main 1103 1064 _____P________ -1 -13.6974 65.6026 99 7 236
1896021S11069 1896 2 SI MM NOT_NAMED 1896-01-23 12:00:00 NR -13.8881 65.3157 main 1064 1033 _____P________ -1 -13.8881 65.3157 99 7 235
1896021S11069 1896 2 SI MM NOT_NAMED 1896-01-23 15:00:00 NR -14.0741 65.0408 main 1025 1002 _____P________ -1 -14.0741 65.0408 99 6 235
1896021S11069 1896 2 SI MM NOT_NAMED 1896-01-23 18:00:00 NR -14.2572 64.7794 main 994 963 _____P________ -1 -14.2572 64.7794 99 6 233
1896021S11069 1896 2 SI MM NOT_NAMED 1896-01-23 21:00:00 NR -14.4394 64.5331 main 963 932 _____P________ -1 -14.4394 64.5331 99 6 232
1896021S11069 1896 2 SI MM NOT_NAMED 1896-01-24 00:00:00 NR -14.6227 64.3034 main 932 901 _____P________ -1 -14.6227 64.3034 99 6 229
1896021S11069 1896 2 SI MM NOT_NAMED 1896-01-24 03:00:00 NR -14.8089 64.0919 main 901 870 _____P________ -1 -14.8089 64.0919 99 5 226
1896021S11069 1896 2 SI MM NOT_NAMED 1896-01-24 06:00:00 NR -15.0000 63.9000 reunion main 870 839 _____O________ -1 -15.0000 63.9000 99 9.90000 5 224
1896021S11069 1896 2 SI MM NOT_NAMED 1896-01-24 09:00:00 NR -15.1953 63.6979 main 839 808 _____P________ -1 -15.1953 63.6979 99 5 223
1896021S11069 1896 2 SI MM NOT_NAMED 1896-01-24 12:00:00 NR -15.3940 63.5134 main 808 785 _____P________ -1 -15.3940 63.5134 99 5 220
1896021S11069 1896 2 SI MM NOT_NAMED 1896-01-24 15:00:00 NR -15.5968 63.3485 main 777 754 _____P________ -1 -15.5968 63.3485 99 5 216
1896021S11069 1896 2 SI MM NOT_NAMED 1896-01-24 18:00:00 NR -15.8045 63.2056 main 754 732 _____P________ -1 -15.8045 63.2056 99 5 211
1896021S11069 1896 2 SI MM NOT_NAMED 1896-01-24 21:00:00 NR -16.0179 63.0870 main 732 709 _____P________ -1 -16.0179 63.0870 99 5 205
1896021S11069 1896 2 SI MM NOT_NAMED 1896-01-25 00:00:00 NR -16.2378 62.9950 main 709 680 _____P________ -1 -16.2378 62.9950 99 5 199
1896021S11069 1896 2 SI MM NOT_NAMED 1896-01-25 03:00:00 NR -16.4649 62.9319 main 680 667 _____P________ -1 -16.4649 62.9319 99 5 190
1896021S11069 1896 2 SI MM NOT_NAMED 1896-01-25 06:00:00 NR -16.7000 62.9000 reunion main 667 654 _____O________ -1 -16.7000 62.9000 99 9.90000 5 190
1896021S11069 1896 2 SI MM NOT_NAMED 1896-01-25 09:00:00 NR -16.9279 62.8481 main 646 633 _____P________ -1 -16.9279 62.8481 99 5 189
1896021S11069 1896 2 SI MM NOT_NAMED 1896-01-25 12:00:00 NR -17.1623 62.8236 main 627 616 _____P________ -1 -17.1623 62.8236 99 5 0
1896021S11069 1896 2 SI MM NOT_NAMED 1896-01-25 15:00:00 NR -17.4050 62.8309 main 616 610 _____P________ -1 -17.4050 62.8309 99 5 175
1896021S11069 1896 2 SI MM NOT_NAMED 1896-01-25 18:00:00 NR -17.6575 62.8744 main 609 599 _____P________ -1 -17.6575 62.8744 99 5 167
1896021S11069 1896 2 SI MM NOT_NAMED 1896-01-25 21:00:00 NR -17.9217 62.9585 main 608 598 _____P________ -1 -17.9217 62.9585 99 6 160
1896021S11069 1896 2 SI MM NOT_NAMED 1896-01-26 00:00:00 NR -18.1990 63.0877 main 603 599 _____P________ -1 -18.1990 63.0877 99 6 153
1896021S11069 1896 2 SI MM NOT_NAMED 1896-01-26 03:00:00 NR -18.4913 63.2667 main 610 607 _____P________ -1 -18.4913 63.2667 99 7 147
1896021S11069 1896 2 SI MM NOT_NAMED 1896-01-26 06:00:00 NR -18.8000 63.5000 reunion main 620 617 _____O________ -1 -18.8000 63.5000 99 9.90000 8 142
1896021S11069 1896 2 SI MM NOT_NAMED 1896-01-26 09:00:00 NR -19.1557 63.8164 main 639 639 _____P________ -1 -19.1557 63.8164 99 10 138
1896021S11069 1896 2 SI MM NOT_NAMED 1896-01-26 12:00:00 NR -19.5318 64.1952 main 675 673 _____P________ -1 -19.5318 64.1952 99 11 135
1896021S11069 1896 2 SI MM NOT_NAMED 1896-01-26 15:00:00 NR -19.9189 64.6212 main 711 711 _____P________ -1 -19.9189 64.6212 99 11 133
1896021S11069 1896 2 SI MM NOT_NAMED 1896-01-26 18:00:00 NR -20.3077 65.0786 main 761 760 _____P________ -1 -20.3077 65.0786 99 12 131
1896021S11069 1896 2 SI MM NOT_NAMED 1896-01-26 21:00:00 NR -20.6891 65.5515 main 813 813 _____P________ -1 -20.6891 65.5515 99 12 130
1896021S11069 1896 2 SI MM NOT_NAMED 1896-01-27 00:00:00 NR -21.0541 66.0237 main 857 857 _____P________ -1 -21.0541 66.0237 99 11 129
1896021S11069 1896 2 SI MM NOT_NAMED 1896-01-27 03:00:00 NR -21.3939 66.4787 main 912 912 _____P________ -1 -21.3939 66.4787 99 10 128
1896021S11069 1896 2 SI MM NOT_NAMED 1896-01-27 06:00:00 NR -21.7000 66.9000 reunion main 957 957 _____O________ -1 -21.7000 66.9000 99 9.90000 9 128
1896021S11069 1896 2 SI MM NOT_NAMED 1896-01-27 09:00:00 NR -21.9551 67.2440 main 992 992 _____P________ -1 -21.9551 67.2440 99 8 128
1896021S11069 1896 2 SI MM NOT_NAMED 1896-01-27 12:00:00 NR -22.1803 67.5622 main 1037 1037 _____P________ -1 -22.1803 67.5622 99 7 127
1896021S11069 1896 2 SI MM NOT_NAMED 1896-01-27 15:00:00 NR -22.3793 67.8558 main 1071 1071 _____P________ -1 -22.3793 67.8558 99 6 126
1896021S11069 1896 2 SI MM NOT_NAMED 1896-01-27 18:00:00 NR -22.5554 68.1260 main 1096 1096 _____P________ -1 -22.5554 68.1260 99 6 125
1896021S11069 1896 2 SI MM NOT_NAMED 1896-01-27 21:00:00 NR -22.7121 68.3742 main 1128 1128 _____P________ -1 -22.7121 68.3742 99 5 124
1896021S11069 1896 2 SI MM NOT_NAMED 1896-01-28 00:00:00 NR -22.8528 68.6017 main 1153 1153 _____P________ -1 -22.8528 68.6017 99 5 124
1896021S11069 1896 2 SI MM NOT_NAMED 1896-01-28 03:00:00 NR -22.9810 68.8098 main 1175 1175 _____P________ -1 -22.9810 68.8098 99 4 124
1896021S11069 1896 2 SI MM NOT_NAMED 1896-01-28 06:00:00 NR -23.1000 69.0000 reunion main 1198 1198 _____O________ -1 -23.1000 69.0000 99 9.90000 4 125
1896021S11069 1896 2 SI MM NOT_NAMED 1896-01-28 09:00:00 NR -23.2127 69.1737 main 1220 1220 _____P________ -1 -23.2127 69.1737 99 4 126
1896021S11069 1896 2 SI MM NOT_NAMED 1896-01-28 12:00:00 NR -23.3203 69.3330 main 1232 1232 _____P________ -1 -23.3203 69.3330 99 4 127
1896021S11069 1896 2 SI MM NOT_NAMED 1896-01-28 15:00:00 NR -23.4236 69.4797 main 1255 1255 _____P________ -1 -23.4236 69.4797 99 3 128
1896021S11069 1896 2 SI MM NOT_NAMED 1896-01-28 18:00:00 NR -23.5233 69.6161 main 1268 1268 _____P________ -1 -23.5233 69.6161 99 3 129
1896021S11069 1896 2 SI MM NOT_NAMED 1896-01-28 21:00:00 NR -23.6200 69.7443 main 1280 1280 _____P________ -1 -23.6200 69.7443 99 3 130
1896021S11069 1896 2 SI MM NOT_NAMED 1896-01-29 00:00:00 NR -23.7146 69.8662 main 1303 1303 _____P________ -1 -23.7146 69.8662 99 3 131
1896021S11069 1896 2 SI MM NOT_NAMED 1896-01-29 03:00:00 NR -23.8077 69.9841 main 1315 1315 _____P________ -1 -23.8077 69.9841 99 3 131
1896021S11069 1896 2 SI MM NOT_NAMED 1896-01-29 06:00:00 NR -23.9000 70.1000 reunion main 1328 _____O________ -1 -23.9000 70.1000 99 9.90000 3 132

IBTrACS Databaseについて

本データベースは、米国NOAAが公開する1842年以降の世界の熱帯低気圧のベストトラックデータアーカイブInternational Best Track Archive for Climate Stewardship (IBTrACS)を、ウェブで閲覧しやすい形式に変換したものです。

最終更新日:2021-12-06